Pagrindinis puslapis
METAR-TAF:

METAR-TAF

Oro uostai :

Youngstown-Warren, Ohajas, Jungtinės Amerikos Valstijos

platuma: 41-15-16N, ilguma: 080-40-26W, Aukštis: 364 m

Dabartinis oras

Ataskaita buvo paskelbta 1 valandą ir 13 minutes, ne 06:51 UTC
Vėjas 7 kt iš Šiaurės
Temperatūra 11°C
Drėgmė 87%
Slėgis 1018 hPa
Matomumas: 16.1 km
Mažai debesys ne aukštis 1800 ft
Sekli rūkas

METAR: KYNG 180651Z 36007KT 10SM MIFG FEW018 11/09 A3005 RMK AO2 SLP174 T01110089 $

Laikas: 04:04 (08:04 UTC)

Prognozė

Ataskaita buvo paskelbta 2 valandos ir 35 minutes, ne 05:29 UTC
Prognozė galioja nuo 18 metu 06 UTC su 19 metu 06 UTC
Vėjas 9 kt iš Šiaurės
Matomumas: 10 km
Su prošvaistėmis ne aukštis 4500 ft
Nuo 18 metu 1500 UTC
Vėjas 12 kt iš Šiaurės su gūsio iki 19 kt
Matomumas: 10 km
Išsisklaidę debesys ne aukštis 25000 ft
Nuo 19 metu 0000 UTC
Vėjas 9 kt iš Šiaurės/Šiaurės Rytų
Matomumas: 10 km
Išsisklaidę debesys ne aukštis 25000 ft

TAF: KYNG 180529Z 1806/1906 01009KT P6SM BKN045 FM181500 01012G19KT P6SM SCT250 FM190000 02009KT P6SM SCT250

Orai ataskaitas ir orų prognozės (METAR, TAF).

turimą stotys yra geltonos ir raudonos taškus žemėlapyje.

Perkelti pele per norėdami pamatyti stoties vardą.

Tada spustelėkite, norėdami matyti oro stebėjimo ir prognozės.

Norėdami pakeisti žemėlapį: spustelėkite ant žalios mygtukų su juodo kryžiaus žemyn,; žalią mygtuką su brūkšneliu, jei norite nutolinti; arba žalių rodyklių gretimoms žemėlapius.


METAR-TAF: